Terminal Aerodrome Forecast
Issued by NWS North Platte, NE

Home | Current Version | Previous Version | Graphics & Text | Print | Product List | Glossary On
Versions: 1 2 3 4 5 6 7 8 9 10 11 12 13
656
FTUS43 KLBF 181720
TAFVTN
TAF
KVTN 181720Z 1818/1918 36015G25KT P6SM SKC
     FM182100 02009KT P6SM FEW250
     FM190200 VRB05KT P6SM FEW250
     FM190600 VRB05KT P6SM SKC WS003/20028KT
     FM191000 20007KT P6SM SKC WS005/20037KT
     FM191500 20012G25KT P6SM SKC=

USA.gov is the U.S. government's official web portal to all federal, state and local government web resources and services.